Latest Weather Observations for Mangrove Mountain

IDN60801

Issued at 8:35 am EST Friday 25 July 2014 (issued every 30 minutes, with the page automatically refreshed every 10 minutes)

About weather observations | Map of weather stations | Latest weather observations for NSW | Other Formats
Station Details ID: 061375 Name: MANGROVE MOUNTAIN AWS Lat: -33.29 Lon: 151.21 Height: 305.0 m
Data from the previous 72 hours. | See also: Recent months at Mangrove Mountain
Date/Time
EST
Temp
°C
App
Temp
°C
Dew
Point
Rel
Hum
%
Delta-T
°C
Wind Press
QNH
hPa
Press
MSL
hPa
Rain
since 9 am
mm
Dir
 
Spd
km/h
Gust
km/h
Spd
kts
Gust
kts
25/08:30am 10.0 7.9 8.3 89 0.8 W 9 15 5 8 - - 0.0
25/08:00am 9.8 9.0 8.1 89 0.8 NW 2 4 1 2 - - 0.0
25/07:30am 9.4 8.1 7.8 90 0.8 NNW 4 7 2 4 - - 0.0
25/07:00am 9.8 8.5 7.6 86 1.1 NW 4 9 2 5 - - 0.0
25/06:30am 10.1 8.8 7.5 84 1.3 NNW 4 7 2 4 - - 0.0
25/06:00am 10.5 9.3 8.1 85 1.2 NNW 4 6 2 3 - - 0.0
25/05:30am 10.3 9.0 7.5 83 1.4 NNW 4 6 2 3 - - 0.0
25/05:00am 11.0 9.8 8.2 83 1.4 N 4 7 2 4 - - 0.0
25/04:30am 10.4 8.9 8.5 88 0.9 N 6 9 3 5 - - 0.0
25/04:00am 8.6 7.6 7.5 93 0.5 N 2 4 1 2 - - 0.0
25/03:30am 7.8 7.1 6.9 94 0.4 CALM 0 4 0 2 - - 0.0
25/03:00am 8.2 7.6 7.3 94 0.4 CALM 0 0 0 0 - - 0.0
25/02:30am 8.5 7.6 7.7 95 0.4 NNW 2 6 1 3 - - 0.0
25/02:00am 8.4 7.5 7.6 95 0.4 NNW 2 6 1 3 - - 0.0
25/01:30am 8.1 7.1 7.2 94 0.4 NNW 2 4 1 2 - - 0.0
25/01:00am 8.2 6.6 6.2 87 0.9 NNW 4 6 2 3 - - 0.0
25/12:30am 9.4 7.9 7.0 85 1.1 N 4 7 2 4 - - 0.0
25/12:00am 11.9 10.3 7.8 76 2.0 NE 6 9 3 5 - - 0.0
 
Date/Time
EST
Temp
°C
App
Temp
°C
Dew
Point
Rel
Hum
%
Delta-T
°C
Wind Press
QNH
hPa
Press
MSL
hPa
Rain
since 9 am
mm
Dir
 
Spd
km/h
Gust
km/h
Spd
kts
Gust
kts
24/11:30pm 12.3 10.1 8.0 75 2.1 NE 9 11 5 6 - - 0.0
24/11:00pm 13.0 10.5 8.1 72 2.5 NNE 11 17 6 9 - - 0.0
24/10:30pm 12.6 10.6 8.5 76 2.1 NE 9 13 5 7 - - 0.0
24/10:00pm 12.6 10.6 8.7 77 2.0 NE 9 13 5 7 - - 0.0
24/09:30pm 12.5 10.5 8.8 78 1.9 NE 9 13 5 7 - - 0.0
24/09:00pm 12.5 10.5 8.6 77 2.0 NE 9 13 5 7 - - 0.0
24/08:30pm 12.2 10.6 8.9 80 1.7 NE 7 13 4 7 - - 0.0
24/08:00pm 12.1 10.9 9.7 85 1.2 NNE 6 9 3 5 - - 0.0
24/07:30pm 11.8 10.4 9.4 85 1.2 NNE 7 11 4 6 - - 0.0
24/07:00pm 12.1 10.8 10.0 87 1.1 NE 7 9 4 5 - - 0.0
24/06:30pm 11.4 10.0 9.0 85 1.2 NE 6 9 3 5 - - 0.0
24/06:00pm 12.1 11.2 9.1 82 1.5 NE 4 6 2 3 - - 0.0
24/05:30pm 12.2 11.1 8.5 78 1.9 NNE 4 7 2 4 - - 0.0
24/05:00pm 13.4 12.0 8.9 74 2.3 NNE 6 9 3 5 - - 0.0
24/04:30pm 13.5 12.4 8.6 72 2.5 N 4 7 2 4 - - 0.0
24/04:00pm 13.6 12.7 9.3 75 2.2 N 4 6 2 3 - - 0.0
24/03:30pm 13.7 12.8 9.2 74 2.3 N 4 7 2 4 - - 0.0
24/03:00pm 14.0 12.5 9.2 73 2.5 N 7 11 4 6 - - 0.0
24/02:30pm 13.7 12.5 9.7 77 2.1 N 6 11 3 6 - - 0.0
24/02:00pm 13.8 12.4 9.6 76 2.2 NNW 7 13 4 7 - - 0.0
24/01:30pm 13.4 12.4 10.2 81 1.7 NW 6 11 3 6 - - 0.0
24/01:00pm 12.5 11.4 9.9 84 1.4 NW 6 7 3 4 - - 0.0
24/12:30pm 11.9 10.7 9.5 85 1.2 NW 6 11 3 6 - - 0.0
24/12:00pm 11.8 10.5 10.0 89 0.9 NW 7 9 4 5 - - 0.0
24/11:30am 11.3 10.5 9.7 90 0.8 WNW 4 6 2 3 - - 0.0
24/11:00am 11.3 10.6 10.2 93 0.6 NW 4 7 2 4 - - 0.0
24/10:30am 11.2 11.4 10.6 96 0.3 CALM 0 0 0 0 - - 0.0
24/10:00am 9.8 8.6 9.5 98 0.2 NW 6 6 3 3 - - 0.0
24/09:30am 9.4 8.9 9.4 100 0.0 WNW 2 4 1 2 - - 0.0
24/09:00am 8.8 7.8 8.8 100 0.0 NW 4 6 2 3 - - 0.2
24/08:30am 8.0 7.5 8.0 100 0.0 CALM 0 0 0 0 - - 0.2
24/08:00am 7.1 6.4 7.1 100 0.0 CALM 0 0 0 0 - - 0.2
24/07:30am 5.0 3.9 5.0 100 0.0 CALM 0 0 0 0 - - 0.2
24/07:00am 5.7 4.7 5.7 100 0.0 CALM 0 0 0 0 - - 0.2
24/06:30am 5.4 4.4 5.4 100 0.0 CALM 0 0 0 0 - - 0.2
24/06:00am 6.1 5.2 6.1 100 0.0 CALM 0 0 0 0 - - 0.2
24/05:30am 6.3 5.4 6.2 99 0.0 CALM 0 0 0 0 - - 0.2
24/05:00am 6.0 5.0 5.7 98 0.1 CALM 0 0 0 0 - - 0.2
24/04:30am 6.1 5.1 5.4 95 0.3 CALM 0 2 0 1 - - 0.2
24/04:00am 7.5 6.0 6.9 96 0.3 NE 4 6 2 3 - - 0.2
24/03:30am 8.0 6.6 7.4 96 0.3 NE 4 6 2 3 - - 0.2
24/03:00am 8.7 7.6 8.3 97 0.2 NE 4 7 2 4 - - 0.2
24/02:30am 8.6 7.4 8.2 97 0.2 NE 4 7 2 4 - - 0.2
24/02:00am 8.7 7.5 7.9 95 0.4 ENE 4 7 2 4 - - 0.2
24/01:30am 9.1 7.8 7.7 91 0.7 ENE 4 6 2 3 - - 0.2
24/01:00am 10.4 9.4 9.0 91 0.7 NE 4 7 2 4 - - 0.2
24/12:30am 10.6 9.4 9.5 93 0.6 NE 6 11 3 6 - - 0.2
24/12:00am 10.5 9.3 9.4 93 0.6 NE 6 9 3 5 - - 0.2
 
Date/Time
EST
Temp
°C
App
Temp
°C
Dew
Point
Rel
Hum
%
Delta-T
°C
Wind Press
QNH
hPa
Press
MSL
hPa
Rain
since 9 am
mm
Dir
 
Spd
km/h
Gust
km/h
Spd
kts
Gust
kts
23/11:30pm 10.5 9.3 9.6 94 0.5 NE 6 9 3 5 - - 0.0
23/11:00pm 10.2 8.8 9.4 95 0.4 ENE 7 11 4 6 - - 0.0
23/10:30pm 9.2 7.8 8.7 97 0.2 ENE 6 9 3 5 - - 0.0
23/10:00pm 8.5 7.2 7.7 95 0.4 ENE 4 6 2 3 - - 0.0
23/09:30pm 8.7 7.6 8.3 97 0.2 NE 4 7 2 4 - - 0.0
23/09:00pm 8.9 7.8 8.5 97 0.2 NE 4 7 2 4 - - 0.0
23/08:30pm 8.3 7.3 7.5 95 0.4 ENE 2 6 1 3 - - 0.0
23/08:00pm 9.1 8.3 8.2 94 0.4 ENE 2 7 1 4 - - 0.0
23/07:30pm 9.5 8.0 8.6 94 0.4 ENE 6 7 3 4 - - 0.0
23/07:00pm 9.8 8.8 8.7 93 0.5 ENE 4 7 2 4 - - 0.0
23/06:30pm 10.3 8.9 8.9 91 0.7 E 6 7 3 4 - - 0.0
23/06:00pm 10.7 9.4 9.1 90 0.8 E 6 9 3 5 - - 0.0
23/05:30pm 10.9 9.5 8.8 87 1.1 E 6 9 3 5 - - 0.0
23/05:00pm 11.7 10.3 8.9 83 1.4 E 6 7 3 4 - - 0.0
23/04:30pm 12.5 11.2 9.1 80 1.7 E 6 9 3 5 - - 0.0
23/04:00pm 13.2 11.9 9.1 76 2.1 E 6 9 3 5 - - 0.0
23/03:30pm 14.1 12.5 8.7 70 2.8 ESE 7 11 4 6 - - 0.0
23/03:00pm 14.3 14.0 8.5 68 3.0 CALM 0 0 0 0 - - 0.0
23/02:30pm 14.5 14.0 8.0 65 3.3 CALM 0 0 0 0 - - 0.0
23/02:00pm 14.2 13.9 8.6 69 2.9 CALM 0 0 0 0 - - 0.0
23/01:30pm 14.5 13.8 8.5 67 3.1 SW 2 4 1 2 - - 0.0
23/01:00pm 13.8 12.3 8.4 70 2.7 S 6 7 3 4 - - 0.0
23/12:30pm 15.0 13.5 9.1 68 3.1 SSE 7 11 4 6 - - 0.0
23/12:00pm 14.3 13.7 8.9 70 2.8 NNW 2 6 1 3 - - 0.0
23/11:30am 14.9 13.5 9.7 71 2.7 WNW 7 11 4 6 - - 0.0
23/11:00am 12.7 12.0 10.2 85 1.3 W 4 7 2 4 - - 0.0
23/10:30am 11.0 11.0 11.0 100 0.0 NW 2 6 1 3 - - 0.0
23/10:00am 10.3 9.7 10.3 100 0.0 NNW 4 6 2 3 - - 0.0
23/09:30am 9.0 7.6 9.0 100 0.0 NW 6 7 3 4 - - 0.0
23/09:00am 7.7 6.4 7.7 100 0.0 NW 4 4 2 2 - - 0.0
23/08:30am 7.1 5.7 7.1 100 0.0 NW 4 7 2 4 - - 0.0
23/08:00am 6.8 6.1 6.8 100 0.0 CALM 0 2 0 1 - - 0.0
23/07:30am 5.5 4.1 5.5 100 0.0 NW 2 4 1 2 - - 0.0
23/07:00am 4.2 2.9 4.2 100 0.0 CALM 0 0 0 0 - - 0.0
23/06:30am 4.5 2.5 4.5 100 0.0 NW 4 6 2 3 - - 0.0
23/06:00am 4.3 2.7 4.3 100 0.0 NNW 2 4 1 2 - - 0.0
23/05:30am 4.2 2.9 4.2 100 0.0 CALM 0 0 0 0 - - 0.0
23/05:00am 4.7 3.5 4.7 100 0.0 CALM 0 0 0 0 - - 0.0
23/04:30am 4.6 3.4 4.6 100 0.0 CALM 0 0 0 0 - - 0.0
23/04:00am 5.1 4.0 5.1 100 0.0 CALM 0 0 0 0 - - 0.0
23/03:30am 5.4 4.0 5.4 100 0.0 NNW 2 4 1 2 - - 0.0
23/03:00am 5.7 4.7 5.7 100 0.0 CALM 0 0 0 0 - - 0.0
23/02:30am 7.0 6.3 7.0 100 0.0 CALM 0 0 0 0 - - 0.0
23/02:00am 6.6 5.8 6.6 100 0.0 CALM 0 0 0 0 - - 0.0
23/01:30am 7.5 6.9 7.5 100 0.0 CALM 0 0 0 0 - - 0.0
23/01:00am 6.0 5.1 6.0 100 0.0 CALM 0 0 0 0 - - 0.0
23/12:30am 6.0 5.1 6.0 100 0.0 CALM 0 0 0 0 - - 0.0
23/12:00am 6.6 5.8 6.6 100 0.0 CALM 0 0 0 0 - - 0.0
 
Date/Time
EST
Temp
°C
App
Temp
°C
Dew
Point
Rel
Hum
%
Delta-T
°C
Wind Press
QNH
hPa
Press
MSL
hPa
Rain
since 9 am
mm
Dir
 
Spd
km/h
Gust
km/h
Spd
kts
Gust
kts
22/11:30pm 6.5 5.7 6.5 100 0.0 CALM 0 4 0 2 - - 0.0
22/11:00pm 5.8 4.8 5.7 99 0.0 CALM 0 0 0 0 - - 0.0
22/10:30pm 6.0 5.1 5.9 99 0.0 CALM 0 0 0 0 - - 0.0
22/10:00pm 5.8 4.8 5.5 98 0.1 CALM 0 0 0 0 - - 0.0
22/09:30pm 6.6 5.8 6.5 99 0.0 CALM 0 0 0 0 - - 0.0
22/09:00pm 6.7 5.9 6.4 98 0.1 CALM 0 0 0 0 - - 0.0
22/08:30pm 7.1 6.4 6.8 98 0.1 CALM 0 0 0 0 - - 0.0
22/08:00pm 7.2 6.1 6.8 97 0.2 ESE 2 4 1 2 - - 0.0
22/07:30pm 7.4 6.3 6.8 96 0.3 ESE 2 4 1 2 - - 0.0
22/07:00pm 7.7 6.6 6.8 94 0.4 E 2 4 1 2 - - 0.0
22/06:30pm 8.0 6.8 6.6 91 0.7 E 2 4 1 2 - - 0.0
22/06:00pm 9.3 8.1 7.9 91 0.7 ESE 4 6 2 3 - - 0.0
22/05:30pm 9.4 8.3 6.8 84 1.2 SE 2 4 1 2 - - 0.0
22/05:00pm 11.6 10.4 7.9 78 1.8 SE 4 6 2 3 - - 0.0
22/04:30pm 13.1 11.9 8.2 72 2.5 ESE 4 6 2 3 - - 0.0
22/04:00pm 13.6 12.5 8.4 71 2.6 SE 4 7 2 4 - - 0.0
22/03:30pm 15.0 13.4 8.0 63 3.6 ESE 6 9 3 5 - - 0.0
22/03:00pm 15.4 13.3 8.2 62 3.7 SSE 9 15 5 8 - - 0.0
22/02:30pm 13.9 12.7 8.1 68 2.9 ESE 4 7 2 4 - - 0.0
22/02:00pm 15.0 13.6 7.1 59 3.9 S 4 7 2 4 - - 0.0
22/01:30pm 15.9 14.9 8.9 63 3.6 WSW 4 6 2 3 - - 0.0
22/01:00pm 14.6 12.7 7.6 63 3.5 SSE 7 11 4 6 - - 0.0
22/12:30pm 15.3 14.5 9.7 69 3.0 SSW 4 9 2 5 - - 0.0
22/12:00pm 14.3 12.6 8.5 68 3.0 SW 7 15 4 8 - - 0.0
22/11:30am 13.8 13.0 9.8 77 2.1 SW 4 7 2 4 - - 0.0
22/11:00am 13.2 12.0 9.5 78 1.9 SW 6 11 3 6 - - 0.0
22/10:30am 12.7 11.5 9.7 82 1.6 SSW 6 9 3 5 - - 0.0
22/10:00am 11.5 10.4 9.8 89 0.9 WSW 6 11 3 6 - - 0.0
22/09:30am 10.6 9.9 10.0 96 0.3 WSW 4 7 2 4 - - 0.0
22/09:00am 10.5 10.3 10.5 100 0.0 SW 2 7 1 4 - - 0.2

Other Formats:

Comma delimited format used in spreadsheet applications
http://www.bom.gov.au/fwo/IDN60801/IDN60801.95774.axf

JavaScript Object Notation format (JSON) in row-major order
http://www.bom.gov.au/fwo/IDN60801/IDN60801.95774.json